createdAt,value
2018-10-07T00:01:25.490Z,71.76
2018-10-07T00:03:55.113Z,71.60
2018-10-07T00:06:24.932Z,72.28
2018-10-07T00:08:54.977Z,72.08
2018-10-07T00:11:24.579Z,72.19
2018-10-07T00:13:55.209Z,72.82
2018-10-07T00:16:25.285Z,73.64
2018-10-07T00:18:54.937Z,72.89
2018-10-07T00:21:24.591Z,72.63
2018-10-07T00:24:06.327Z,73.08
2018-10-07T00:26:36.151Z,74.38
2018-10-07T00:29:12.930Z,74.26
2018-10-07T00:31:47.666Z,74.86
2018-10-07T00:34:18.689Z,75.37
2018-10-07T00:36:48.701Z,75.48
2018-10-07T00:39:18.373Z,76.68
2018-10-07T00:41:48.035Z,76.06
2018-10-07T00:44:19.669Z,76.93
2018-10-07T00:46:49.420Z,77.42
2018-10-07T00:49:19.087Z,77.98
2018-10-07T00:51:48.830Z,78.86
2018-10-07T00:54:19.904Z,78.28
2018-10-07T00:56:50.477Z,78.14
2018-10-07T00:59:22.896Z,79.02
2018-10-07T01:01:52.691Z,79.29
2018-10-07T01:04:22.485Z,79.18
2018-10-07T01:06:52.118Z,79.23
2018-10-07T01:09:23.324Z,80.80
2018-10-07T01:11:53.588Z,80.60
2018-10-07T01:14:23.387Z,80.30
2018-10-07T01:16:53.522Z,81.18
2018-10-07T01:19:24.344Z,80.89
2018-10-07T01:21:54.370Z,80.91
2018-10-07T01:24:24.060Z,82.51
2018-10-07T01:26:54.069Z,81.45
2018-10-07T01:29:24.657Z,82.80
2018-10-07T01:31:54.355Z,81.71
2018-10-07T01:34:24.076Z,82.14
2018-10-07T01:36:55.818Z,81.48
2018-10-07T01:39:26.232Z,82.82
2018-10-07T01:41:56.370Z,83.27
2018-10-07T01:44:26.047Z,82.44
2018-10-07T01:46:55.917Z,82.41
2018-10-07T01:49:27.822Z,82.16
2018-10-07T01:51:58.320Z,82.34
2018-10-07T01:54:28.608Z,81.63
2018-10-07T01:56:58.297Z,82.72
2018-10-07T01:59:29.345Z,82.66
2018-10-07T02:02:00.241Z,82.95
2018-10-07T02:04:33.298Z,82.74
2018-10-07T02:07:15.354Z,83.29
2018-10-07T02:10:18.252Z,82.92
2018-10-07T02:12:48.438Z,83.48
2018-10-07T02:15:38.236Z,83.24
2018-10-07T02:18:07.883Z,83.06
2018-10-07T02:20:41.450Z,83.37
2018-10-07T02:23:17.876Z,83.47
2018-10-07T02:25:47.905Z,83.93
2018-10-07T02:28:34.474Z,83.78
2018-10-07T02:31:24.806Z,83.74
2018-10-07T02:33:58.932Z,83.76
2018-10-07T02:36:29.126Z,84.17
2018-10-07T02:38:58.867Z,84.85
2018-10-07T02:41:28.529Z,83.75
2018-10-07T02:43:58.592Z,83.86
2018-10-07T02:46:28.299Z,86.70
2018-10-07T02:48:57.938Z,85.97
2018-10-07T02:51:27.601Z,86.15
2018-10-07T02:53:57.946Z,85.44
2018-10-07T02:56:27.806Z,85.78
2018-10-07T02:58:58.668Z,87.21
2018-10-07T03:01:28.277Z,86.78
2018-10-07T03:03:57.922Z,86.00
2018-10-07T03:06:27.591Z,86.80
2018-10-07T03:08:57.728Z,86.35
2018-10-07T03:11:28.378Z,86.44
2018-10-07T03:14:07.131Z,86.91
2018-10-07T03:16:46.644Z,86.36
2018-10-07T03:19:28.699Z,86.50
2018-10-07T03:22:00.434Z,85.86
2018-10-07T03:24:40.583Z,86.21
2018-10-07T03:27:16.534Z,86.50
2018-10-07T03:30:01.249Z,85.70
2018-10-07T03:32:31.401Z,85.13
2018-10-07T03:35:01.387Z,86.50
2018-10-07T03:37:31.225Z,86.68
2018-10-07T03:40:00.902Z,86.61
2018-10-07T03:42:30.633Z,85.80
2018-10-07T03:45:00.269Z,86.16
2018-10-07T03:47:30.256Z,87.22
2018-10-07T03:49:59.958Z,87.89
2018-10-07T03:52:29.726Z,87.64
2018-10-07T03:54:59.413Z,90.01
2018-10-07T03:57:29.377Z,88.64
2018-10-07T03:59:59.069Z,88.73
2018-10-07T04:02:29.074Z,89.89
2018-10-07T04:04:58.719Z,90.61
2018-10-07T04:07:28.404Z,89.76
2018-10-07T04:09:58.129Z,89.53
2018-10-07T04:12:27.773Z,89.23
2018-10-07T04:14:57.457Z,89.53
2018-10-07T04:17:27.119Z,89.65
2018-10-07T04:19:57.261Z,90.32
2018-10-07T04:22:26.932Z,91.57
2018-10-07T04:24:56.685Z,90.87
2018-10-07T04:27:26.870Z,90.17
2018-10-07T04:29:56.512Z,90.66
2018-10-07T04:32:26.219Z,90.53
2018-10-07T04:34:55.901Z,92.02
2018-10-07T04:37:25.532Z,91.70
2018-10-07T04:39:55.343Z,92.39
2018-10-07T04:42:31.286Z,91.49
2018-10-07T04:45:01.644Z,89.87
2018-10-07T04:47:31.317Z,90.09
2018-10-07T04:50:00.980Z,90.56
2018-10-07T04:52:30.642Z,91.43
2018-10-07T04:55:01.354Z,91.79
2018-10-07T04:57:33.911Z,92.58
2018-10-07T05:00:03.727Z,92.25
2018-10-07T05:02:33.417Z,91.64
2018-10-07T05:05:03.402Z,93.21
2018-10-07T05:07:33.157Z,92.82
2018-10-07T05:10:15.381Z,93.25
2018-10-07T05:12:45.747Z,92.81
2018-10-07T05:15:15.464Z,92.49
2018-10-07T05:17:45.186Z,91.33
2018-10-07T05:20:15.796Z,91.01
2018-10-07T05:22:45.501Z,91.62
2018-10-07T05:25:15.210Z,91.76
2018-10-07T05:27:45.391Z,93.61
2018-10-07T05:30:15.342Z,94.22
2018-10-07T05:32:45.417Z,93.76
2018-10-07T05:35:15.407Z,93.63
2018-10-07T05:37:45.097Z,92.64
2018-10-07T05:40:15.285Z,93.18
2018-10-07T05:42:44.981Z,94.14
2018-10-07T05:45:14.753Z,94.31
2018-10-07T05:47:45.006Z,94.45
2018-10-07T05:50:14.691Z,93.61
2018-10-07T05:52:44.357Z,93.22
2018-10-07T05:55:14.090Z,93.07
2018-10-07T05:57:48.727Z,93.29
2018-10-07T06:00:20.577Z,93.93
2018-10-07T06:02:50.331Z,93.54
2018-10-07T06:05:20.322Z,93.14
2018-10-07T06:07:49.983Z,94.13
2018-10-07T06:10:20.056Z,94.24
2018-10-07T06:12:56.913Z,95.31
2018-10-07T06:15:35.363Z,95.29
2018-10-07T06:18:15.241Z,94.79
2018-10-07T06:20:46.647Z,94.69
2018-10-07T06:23:17.337Z,93.79
2018-10-07T06:25:48.111Z,94.75
2018-10-07T06:28:17.785Z,94.09
2018-10-07T06:30:48.105Z,93.71
2018-10-07T06:33:19.333Z,93.05
2018-10-07T06:35:49.014Z,93.10
2018-10-07T06:38:18.727Z,92.86
2018-10-07T06:40:48.435Z,93.31
2018-10-07T06:43:19.224Z,92.99
2018-10-07T06:45:50.724Z,92.07
2018-10-07T06:48:20.566Z,92.79
2018-10-07T06:50:50.385Z,92.25
2018-10-07T06:53:20.269Z,91.90
2018-10-07T06:55:50.121Z,93.21
2018-10-07T06:58:20.328Z,92.19
2018-10-07T07:00:50.050Z,92.48
2018-10-07T07:03:19.790Z,91.68
2018-10-07T07:05:49.522Z,91.05
2018-10-07T07:08:20.742Z,90.62
2018-10-07T07:10:51.409Z,89.93
2018-10-07T07:13:22.039Z,89.42
2018-10-07T07:15:51.921Z,88.79
2018-10-07T07:18:21.608Z,87.67
2018-10-07T07:20:51.413Z,84.97
2018-10-07T07:23:22.133Z,84.04
2018-10-07T07:25:52.725Z,82.34
2018-10-07T07:28:23.118Z,82.00
2018-10-07T07:30:55.288Z,80.86
2018-10-07T07:33:27.527Z,81.32
2018-10-07T07:35:57.238Z,80.60
2018-10-07T07:38:29.243Z,81.10
2018-10-07T07:40:59.741Z,78.66
2018-10-07T07:43:32.443Z,78.59
2018-10-07T07:46:03.689Z,79.08
2018-10-07T07:48:33.986Z,80.10
2018-10-07T07:51:07.326Z,78.58
2018-10-07T07:53:37.104Z,78.55
2018-10-07T07:56:23.267Z,78.37
2018-10-07T07:58:52.978Z,77.85
2018-10-07T08:01:35.484Z,78.30
2018-10-07T08:04:05.201Z,77.88
2018-10-07T08:06:35.275Z,77.73
2018-10-07T08:09:08.323Z,77.57
2018-10-07T08:11:38.412Z,78.99
2018-10-07T08:14:08.303Z,77.72
2018-10-07T08:16:38.249Z,76.94
2018-10-07T08:19:07.973Z,77.15
2018-10-07T08:21:37.697Z,77.39
2018-10-07T08:24:07.346Z,77.52
2018-10-07T08:26:38.200Z,77.94
2018-10-07T08:29:28.553Z,76.68
2018-10-07T08:31:59.758Z,77.51
2018-10-07T08:34:30.507Z,76.27
2018-10-07T08:37:02.482Z,76.83
2018-10-07T08:39:33.685Z,76.70
2018-10-07T08:42:03.722Z,76.86
2018-10-07T08:44:36.172Z,75.75
2018-10-07T08:47:06.164Z,75.72
2018-10-07T08:49:36.272Z,76.02
2018-10-07T08:52:06.405Z,76.68
2018-10-07T08:54:36.915Z,75.59
2018-10-07T08:57:06.661Z,77.05
2018-10-07T08:59:36.575Z,76.65
2018-10-07T09:02:06.786Z,76.99
2018-10-07T09:04:42.552Z,76.94
2018-10-07T09:07:18.424Z,77.12
2018-10-07T09:09:49.725Z,76.83
2018-10-07T09:12:19.422Z,77.64
2018-10-07T09:14:49.897Z,77.62
2018-10-07T09:17:20.438Z,76.86
2018-10-07T09:19:55.333Z,77.87
2018-10-07T09:22:27.313Z,77.97
2018-10-07T09:24:58.393Z,77.55
2018-10-07T09:27:28.657Z,77.51
2018-10-07T09:29:58.989Z,77.73
2018-10-07T09:32:28.823Z,77.93
2018-10-07T09:35:01.422Z,78.55
2018-10-07T09:37:31.150Z,78.40
2018-10-07T09:40:00.819Z,78.69
2018-10-07T09:42:30.876Z,79.31
2018-10-07T09:45:00.529Z,79.43
2018-10-07T09:47:30.299Z,80.22
2018-10-07T09:50:00.456Z,79.30
2018-10-07T09:52:32.292Z,80.70
2018-10-07T09:55:02.113Z,80.66
2018-10-07T09:57:33.502Z,81.27
2018-10-07T10:00:03.253Z,81.88
2018-10-07T10:02:34.510Z,82.56
2018-10-07T10:05:04.433Z,81.51
2018-10-07T10:07:35.238Z,82.18
2018-10-07T10:10:07.351Z,81.56
2018-10-07T10:12:44.432Z,81.56
2018-10-07T10:15:15.013Z,82.23
2018-10-07T10:17:49.271Z,82.51
2018-10-07T10:20:23.481Z,82.24
2018-10-07T10:23:06.562Z,82.85
2018-10-07T10:27:16.910Z,84.19
2018-10-07T10:29:50.954Z,84.82
2018-10-07T10:32:28.371Z,85.80
2018-10-07T10:35:12.383Z,86.38
2018-10-07T10:37:51.860Z,86.69
2018-10-07T10:40:29.373Z,87.45
2018-10-07T10:43:14.468Z,88.81
2018-10-07T10:46:12.152Z,87.24
2018-10-07T10:48:50.065Z,88.14
2018-10-07T10:51:29.530Z,87.28
2018-10-07T10:56:10.807Z,87.19
2018-10-07T10:59:19.353Z,88.21
2018-10-07T11:02:04.235Z,88.16
2018-10-07T11:04:49.876Z,88.61
2018-10-07T11:07:23.530Z,88.44
2018-10-07T11:11:01.395Z,87.92
2018-10-07T11:13:38.781Z,88.14
2018-10-07T11:16:16.670Z,87.12
2018-10-07T11:18:55.321Z,86.76
2018-10-07T11:21:36.636Z,87.51
2018-10-07T11:24:19.300Z,88.45
2018-10-07T11:26:58.709Z,88.00
2018-10-07T11:30:41.376Z,87.84
2018-10-07T11:34:52.243Z,87.16
2018-10-07T11:37:32.984Z,86.87
2018-10-07T11:40:15.548Z,85.97
2018-10-07T11:43:07.366Z,86.42
2018-10-07T11:45:45.393Z,85.84
2018-10-07T11:48:30.212Z,86.28
2018-10-07T11:51:06.747Z,86.10
2018-10-07T11:53:45.436Z,85.23
2018-10-07T11:56:17.429Z,86.26
2018-10-07T11:58:48.166Z,85.30
2018-10-07T12:01:20.704Z,86.07
2018-10-07T12:03:52.064Z,86.51
2018-10-07T12:06:25.021Z,88.31
2018-10-07T12:08:55.704Z,88.82
2018-10-07T12:11:25.852Z,89.03
2018-10-07T12:14:11.901Z,90.88
2018-10-07T12:16:44.854Z,90.31
2018-10-07T12:19:17.148Z,90.55
2018-10-07T12:21:51.362Z,92.32
2018-10-07T12:24:22.495Z,92.22
2018-10-07T12:26:52.777Z,91.71
2018-10-07T12:29:22.926Z,92.18
2018-10-07T12:31:57.848Z,92.50
2018-10-07T12:34:29.354Z,92.46
2018-10-07T12:37:00.480Z,91.68
2018-10-07T12:39:31.533Z,92.01
2018-10-07T12:42:03.768Z,92.10
2018-10-07T12:44:35.834Z,91.55
2018-10-07T12:47:06.452Z,90.39
2018-10-07T12:49:38.241Z,89.74
2018-10-07T12:52:11.502Z,90.06
2018-10-07T12:54:42.426Z,89.57
2018-10-07T12:57:13.110Z,89.51
2018-10-07T12:59:44.590Z,89.12
2018-10-07T13:09:13.442Z,89.15
2018-10-07T13:11:45.051Z,89.24
2018-10-07T13:14:18.117Z,89.46
2018-10-07T13:16:50.007Z,90.39
2018-10-07T13:19:20.311Z,89.52
2018-10-07T13:21:51.534Z,90.66
2018-10-07T13:24:23.615Z,90.53
2018-10-07T13:26:57.994Z,90.78
2018-10-07T13:29:29.335Z,91.55
2018-10-07T13:32:01.036Z,93.40
2018-10-07T13:34:31.353Z,93.61
2018-10-07T13:37:02.659Z,93.93
2018-10-07T13:39:34.728Z,94.55
2018-10-07T13:42:06.478Z,95.43
2018-10-07T13:44:39.525Z,97.48
2018-10-07T13:47:09.623Z,96.88
2018-10-07T13:49:41.313Z,98.04
2018-10-07T13:52:12.597Z,97.87
2018-10-07T13:54:43.659Z,97.56
2018-10-07T13:57:14.407Z,97.54
2018-10-07T13:59:50.415Z,98.40
2018-10-07T14:02:23.049Z,98.83
2018-10-07T14:04:54.397Z,100.00
2018-10-07T14:07:24.616Z,99.05
2018-10-07T14:09:56.006Z,99.05
2018-10-07T14:12:26.737Z,99.11
2018-10-07T14:14:57.282Z,98.56
2018-10-07T14:17:32.307Z,98.52
2018-10-07T14:20:04.837Z,98.92
2018-10-07T14:22:36.345Z,98.93
2018-10-07T14:25:07.135Z,99.88
2018-10-07T14:27:39.799Z,99.61
2018-10-07T14:30:12.288Z,99.55
2018-10-07T14:32:42.982Z,100.00
2018-10-07T14:35:13.904Z,99.10
2018-10-07T14:37:45.427Z,99.31
2018-10-07T14:40:19.724Z,99.13
2018-10-07T14:42:51.601Z,99.85
2018-10-07T14:45:21.903Z,99.97
2018-10-07T14:47:56.338Z,100.00
2018-10-07T14:50:27.597Z,100.00
2018-10-07T14:52:57.641Z,99.58
2018-10-07T14:55:28.726Z,100.00
2018-10-07T14:58:01.585Z,100.00
2018-10-07T15:00:32.760Z,100.00
2018-10-07T15:03:04.629Z,99.71
2018-10-07T15:05:37.488Z,99.43
2018-10-07T15:08:25.459Z,99.35
2018-10-07T15:10:55.737Z,100.00
2018-10-07T15:13:28.517Z,100.00
2018-10-07T15:15:59.832Z,99.91
2018-10-07T15:18:30.483Z,99.79
2018-10-07T15:21:03.021Z,99.79
2018-10-07T15:23:35.639Z,99.93
2018-10-07T15:26:07.559Z,99.99
2018-10-07T15:28:43.577Z,99.87
2018-10-07T15:31:16.507Z,100.00
2018-10-07T15:33:48.966Z,99.76
2018-10-07T15:36:20.623Z,98.95
2018-10-07T15:38:50.737Z,98.95
2018-10-07T15:41:20.872Z,98.84
2018-10-07T15:46:54.463Z,98.42
2018-10-07T15:50:01.687Z,97.54
2018-10-07T15:52:52.941Z,97.95
2018-10-07T15:55:26.575Z,97.35
2018-10-07T15:57:58.709Z,97.87
2018-10-07T16:00:29.415Z,97.68
2018-10-07T16:03:00.314Z,97.05
2018-10-07T16:05:30.380Z,98.15
2018-10-07T16:08:11.528Z,98.94
2018-10-07T16:10:42.549Z,98.51
2018-10-07T16:13:17.140Z,98.96
2018-10-07T16:15:47.273Z,98.74
2018-10-07T16:18:17.611Z,98.47
2018-10-07T16:20:49.103Z,98.43
2018-10-07T16:23:19.403Z,99.08
2018-10-07T16:25:50.669Z,99.20
2018-10-07T16:28:20.969Z,99.08
2018-10-07T16:30:56.343Z,97.85
2018-10-07T16:33:27.677Z,98.14
2018-10-07T16:36:03.171Z,98.05
2018-10-07T16:38:34.430Z,97.78
2018-10-07T16:41:05.443Z,98.11
2018-10-07T16:43:37.535Z,97.65
2018-10-07T16:46:17.688Z,97.78
2018-10-07T16:48:49.698Z,98.05
2018-10-07T16:51:22.950Z,97.31
2018-10-07T16:53:56.723Z,97.54
2018-10-07T16:56:28.465Z,98.24
2018-10-07T16:58:59.347Z,98.60
2018-10-07T17:01:30.245Z,98.90
2018-10-07T17:04:00.357Z,99.17
2018-10-07T17:06:32.283Z,98.57
2018-10-07T17:09:05.069Z,99.52
2018-10-07T17:11:36.185Z,99.52
2018-10-07T17:14:10.770Z,99.14
2018-10-07T17:16:41.385Z,99.98
2018-10-07T17:19:12.465Z,99.61
2018-10-07T17:21:44.435Z,99.07
2018-10-07T17:24:19.580Z,98.81
2018-10-07T17:26:54.615Z,98.74
2018-10-07T17:29:33.426Z,98.80
2018-10-07T17:32:05.987Z,98.53
2018-10-07T17:34:40.681Z,98.65
2018-10-07T17:37:16.289Z,98.90
2018-10-07T17:39:48.466Z,99.38
2018-10-07T17:42:20.637Z,99.77
2018-10-07T17:44:58.006Z,99.11
2018-10-07T17:47:32.243Z,99.60
2018-10-07T17:50:06.276Z,99.97
2018-10-07T17:52:41.382Z,99.75
2018-10-07T17:55:14.097Z,99.67
2018-10-07T17:57:44.592Z,99.83
2018-10-07T18:00:21.122Z,100.00
2018-10-07T18:02:51.516Z,100.00
2018-10-07T18:05:22.096Z,100.00
2018-10-07T18:07:53.771Z,99.85
2018-10-07T18:10:24.493Z,100.00
2018-10-07T18:12:57.405Z,99.89
2018-10-07T18:15:33.336Z,99.64
2018-10-07T18:18:04.357Z,100.00
2018-10-07T18:20:37.339Z,99.90
2018-10-07T18:23:10.805Z,99.83
2018-10-07T18:25:41.677Z,99.84
2018-10-07T18:28:13.702Z,100.00
2018-10-07T18:30:45.166Z,100.00
2018-10-07T18:33:15.816Z,100.00
2018-10-07T18:38:23.476Z,99.24
2018-10-07T18:40:56.676Z,99.73
2018-10-07T18:43:29.675Z,100.00
2018-10-07T18:46:01.138Z,99.30
2018-10-07T18:48:31.548Z,99.96
2018-10-07T18:51:03.545Z,100.00
2018-10-07T18:53:35.566Z,100.00
2018-10-07T18:56:10.955Z,99.77
2018-10-07T18:58:42.175Z,100.00
2018-10-07T19:01:13.322Z,99.41
2018-10-07T19:03:44.525Z,99.25
2018-10-07T19:06:16.706Z,99.47
2018-10-07T19:08:47.416Z,99.95
2018-10-07T19:11:24.354Z,98.79
2018-10-07T19:13:56.499Z,98.99
2018-10-07T19:16:28.444Z,98.68
2018-10-07T19:18:59.782Z,98.97
2018-10-07T19:21:34.265Z,98.85
2018-10-07T19:24:04.385Z,98.76
2018-10-07T19:26:36.449Z,98.38
2018-10-07T19:29:07.629Z,98.38
2018-10-07T19:31:41.544Z,99.07
2018-10-07T19:34:13.503Z,98.53
2018-10-07T19:36:49.442Z,97.87
2018-10-07T19:39:25.788Z,97.75
2018-10-07T19:41:57.843Z,97.83
2018-10-07T19:44:29.410Z,98.32
2018-10-07T19:47:01.426Z,99.05
2018-10-07T19:49:35.995Z,98.93
2018-10-07T19:52:08.839Z,98.52
2018-10-07T19:54:40.846Z,99.12
2018-10-07T19:57:14.949Z,98.64
2018-10-07T19:59:47.499Z,99.35
2018-10-07T20:02:19.748Z,99.32
2018-10-07T20:04:51.544Z,98.66
2018-10-07T20:07:22.636Z,98.58
2018-10-07T20:09:52.786Z,99.06
2018-10-07T20:12:25.384Z,98.40
2018-10-07T20:15:00.161Z,98.85
2018-10-07T20:17:31.390Z,98.28
2018-10-07T20:20:03.293Z,98.13
2018-10-07T20:22:34.023Z,97.60
2018-10-07T20:25:05.490Z,98.03
2018-10-07T20:27:35.223Z,97.83
2018-10-07T20:30:06.105Z,97.37
2018-10-07T20:32:43.458Z,97.71
2018-10-07T20:35:14.466Z,97.21
2018-10-07T20:37:46.457Z,97.70
2018-10-07T20:40:16.161Z,97.58
2018-10-07T20:42:46.793Z,97.03
2018-10-07T20:45:19.561Z,96.87
2018-10-07T20:47:50.690Z,95.83
2018-10-07T20:50:20.437Z,96.72
2018-10-07T20:56:11.278Z,97.24
2018-10-07T20:58:45.386Z,96.12
2018-10-07T21:01:19.173Z,96.29
2018-10-07T21:03:50.309Z,96.45
2018-10-07T21:06:25.261Z,96.39
2018-10-07T21:08:55.701Z,97.22
2018-10-07T21:11:30.857Z,96.12
2018-10-07T21:14:00.504Z,96.61
2018-10-07T21:16:31.022Z,96.65
2018-10-07T21:19:00.886Z,96.15
2018-10-07T21:21:31.401Z,96.35
2018-10-07T21:24:01.516Z,96.39
2018-10-07T21:26:31.485Z,96.37
2018-10-07T21:29:01.412Z,95.58
2018-10-07T21:31:31.381Z,96.26
2018-10-07T21:34:02.311Z,96.03
2018-10-07T21:36:40.183Z,96.53
2018-10-07T21:39:11.357Z,96.11
2018-10-07T21:41:41.064Z,96.29
2018-10-07T21:44:14.598Z,96.47
2018-10-07T21:46:48.076Z,96.52
2018-10-07T21:49:17.690Z,96.11
2018-10-07T21:51:49.295Z,96.06
2018-10-07T21:54:18.965Z,96.00
2018-10-07T21:56:49.326Z,96.24
2018-10-07T21:59:19.813Z,95.21
2018-10-07T22:01:49.438Z,95.56
2018-10-07T22:04:19.060Z,96.00
2018-10-07T22:06:49.531Z,95.50
2018-10-07T22:09:19.180Z,96.10
2018-10-07T22:11:48.845Z,96.48
2018-10-07T22:14:23.465Z,96.41
2018-10-07T22:16:53.101Z,96.22
2018-10-07T22:19:23.113Z,95.54
2018-10-07T22:21:52.729Z,95.27
2018-10-07T22:24:22.357Z,94.99
2018-10-07T22:26:52.025Z,95.40
2018-10-07T22:29:22.177Z,95.73
2018-10-07T22:31:52.374Z,96.25
2018-10-07T22:34:23.593Z,95.45
2018-10-07T22:36:54.362Z,95.96
2018-10-07T22:39:25.390Z,95.61
2018-10-07T22:41:55.037Z,95.71
2018-10-07T22:44:26.020Z,96.96
2018-10-07T22:46:56.430Z,96.79
2018-10-07T22:56:10.912Z,96.83
2018-10-07T22:58:42.200Z,96.43
2018-10-07T23:01:14.967Z,96.11
2018-10-07T23:03:46.557Z,96.28
2018-10-07T23:06:17.420Z,96.50
2018-10-07T23:08:48.065Z,96.63
2018-10-07T23:11:19.341Z,96.92
2018-10-07T23:13:51.273Z,96.71
2018-10-07T23:16:23.278Z,96.13
2018-10-07T23:18:53.313Z,96.53
2018-10-07T23:21:23.985Z,97.01
2018-10-07T23:23:53.583Z,96.42
2018-10-07T23:26:23.188Z,97.15
2018-10-07T23:28:53.187Z,96.17
2018-10-07T23:31:22.813Z,97.13
2018-10-07T23:33:53.097Z,96.61
2018-10-07T23:36:23.376Z,96.82
2018-10-07T23:38:54.017Z,96.87
2018-10-07T23:41:24.324Z,96.53
2018-10-07T23:43:57.948Z,95.97
2018-10-07T23:46:27.570Z,96.35
2018-10-07T23:48:58.149Z,96.23
2018-10-07T23:51:29.062Z,96.71
2018-10-07T23:53:58.764Z,96.36
2018-10-07T23:56:28.402Z,96.46
2018-10-07T23:58:58.229Z,96.80
